Time;durP1;ratioP1;P1;durP2;ratioP2;P2;SDS_P1;SDS_P2;PMS_P1;PMS_P2;Temp;Humidity;BMP_temperature;BMP_pressure;BME280_temperature;BME280_humidity;BME280_pressure;Samples;Min_cycle;Max_cycle;Signal;HPM_P1;HPM_P2
2021/06/13 00:01:02;;;;;;;0.10;0.10;;;;;;;11.68;77.77;102408.19;10572862;28;20032;-63
2021/06/13 00:06:04;;;;;;;0.10;0.10;;;;;;;11.59;77.97;102408.13;10575045;28;20498;-63
2021/06/13 00:11:04;;;;;;;0.10;0.10;;;;;;;11.47;78.03;102402.81;10574281;28;20077;-62
2021/06/13 00:16:06;;;;;;;0.10;0.10;;;;;;;11.53;78.65;102399.63;10566063;28;20027;-63
2021/06/13 00:21:07;;;;;;;0.10;0.10;;;;;;;11.64;77.89;102419.25;10582782;28;20026;-63
2021/06/13 00:26:08;;;;;;;0.10;0.10;;;;;;;11.73;77.08;102422.00;10583314;28;20111;-62
2021/06/13 00:31:09;;;;;;;0.00;0.00;;;;;;;11.83;76.41;102415.91;10582159;28;20015;-63
2021/06/13 00:36:09;;;;;;;0.10;0.10;;;;;;;11.92;77.01;102423.16;10583290;28;20098;-62
2021/06/13 00:41:14;;;;;;;0.10;0.10;;;;;;;11.95;76.69;102429.06;10581082;28;20281;-64
2021/06/13 00:46:14;;;;;;;;;;;;;;;11.93;76.99;102428.38;10582937;28;20023;-63
2021/06/13 00:51:15;;;;;;;0.10;0.10;;;;;;;11.94;77.07;102426.56;10581508;28;19914;-63
2021/06/13 00:56:15;;;;;;;0.10;0.10;;;;;;;11.94;77.10;102413.19;10582088;28;20031;-63
2021/06/13 01:01:16;;;;;;;0.05;0.05;;;;;;;11.94;77.31;102418.53;10580972;28;20058;-63
2021/06/13 01:06:28;;;;;;;0.10;0.10;;;;;;;11.97;77.28;102419.13;10577526;28;20432;-63
2021/06/13 01:11:39;;;;;;;0.00;0.00;;;;;;;12.03;76.84;102425.78;10578462;28;20012;-63
2021/06/13 01:17:15;;;;;;;0.10;0.10;;;;;;;12.10;76.38;102429.63;10579311;28;20020;-62
2021/06/13 01:22:37;;;;;;;0.10;0.10;;;;;;;12.10;76.04;102426.97;10574807;28;20039;-63
2021/06/13 01:28:02;;;;;;;0.10;0.10;;;;;;;12.03;76.64;102422.25;10576616;28;20096;-64
2021/06/13 01:33:11;;;;;;;0.10;0.10;;;;;;;11.96;76.55;102440.63;10577242;28;20043;-63
2021/06/13 01:38:15;;;;;;;0.10;0.10;;;;;;;12.04;74.03;102440.81;10580558;28;20450;-63
2021/06/13 01:43:16;;;;;;;0.05;0.05;;;;;;;12.12;74.25;102438.34;10578733;28;20020;-64
2021/06/13 01:48:17;;;;;;;0.00;0.00;;;;;;;12.19;73.67;102439.53;10579655;28;20028;-63
2021/06/13 01:53:19;;;;;;;0.10;0.10;;;;;;;12.33;73.29;102438.34;10579417;28;20103;-64
2021/06/13 01:58:21;;;;;;;0.10;0.10;;;;;;;12.41;72.65;102443.03;10564204;28;20051;-63
2021/06/13 02:03:22;;;;;;;0.10;0.10;;;;;;;12.43;73.24;102443.75;10578549;28;20027;-63
2021/06/13 02:08:23;;;;;;;0.10;0.10;;;;;;;12.41;74.09;102457.25;10560393;22;20036;-61
2021/06/13 02:13:26;;;;;;;0.00;0.00;;;;;;;12.35;73.34;102454.25;10494447;28;20040;-62
2021/06/13 02:18:27;;;;;;;0.10;0.10;;;;;;;12.24;74.06;102463.16;10476528;28;20495;-62
2021/06/13 02:23:29;;;;;;;0.05;0.05;;;;;;;12.18;74.08;102472.56;10493824;28;20388;-60
2021/06/13 02:28:39;;;;;;;0.10;0.10;;;;;;;12.14;74.43;102484.47;10493558;28;20024;-59
2021/06/13 02:33:43;;;;;;;0.10;0.10;;;;;;;12.11;75.00;102483.91;10478700;28;20016;-60
2021/06/13 02:38:43;;;;;;;0.10;0.10;;;;;;;12.07;74.80;102486.00;10498634;28;20025;-60
2021/06/13 02:43:44;;;;;;;0.10;0.10;;;;;;;12.04;74.70;102488.88;10494375;28;20103;-61
2021/06/13 02:48:44;;;;;;;0.10;0.10;;;;;;;12.04;75.68;102488.88;10528571;28;20027;-60
2021/06/13 02:53:50;;;;;;;0.10;0.10;;;;;;;12.03;75.96;102495.22;10536011;28;20482;-61
2021/06/13 02:58:58;;;;;;;0.10;0.10;;;;;;;11.99;75.73;102491.13;10501924;28;20265;-60
2021/06/13 03:04:00;;;;;;;0.00;0.00;;;;;;;11.92;76.21;102487.25;10493894;28;20108;-60
2021/06/13 03:09:02;;;;;;;0.00;0.00;;;;;;;11.90;76.30;102486.53;10504009;28;20472;-61
2021/06/13 03:14:03;;;;;;;0.00;0.00;;;;;;;11.97;76.68;102490.38;10528870;28;20031;-59
2021/06/13 03:19:05;;;;;;;0.10;0.10;;;;;;;12.05;76.29;102498.63;10534095;28;20093;-61
2021/06/13 03:24:07;;;;;;;0.10;0.10;;;;;;;12.10;76.03;102507.09;10514192;28;20517;-59
2021/06/13 03:29:08;;;;;;;0.10;0.10;;;;;;;12.12;76.26;102509.63;10515203;28;20475;-61
2021/06/13 03:34:09;;;;;;;0.10;0.10;;;;;;;12.13;76.84;102504.16;10514861;28;20052;-60
2021/06/13 03:39:11;;;;;;;0.10;0.10;;;;;;;12.18;77.07;102520.63;10513766;28;20047;-59
2021/06/13 03:44:12;;;;;;;0.10;0.10;;;;;;;12.23;76.78;102517.59;10496780;28;20103;-61
2021/06/13 03:49:16;;;;;;;0.10;0.10;;;;;;;12.27;76.86;102521.69;10490896;28;20017;-61
2021/06/13 03:54:16;;;;;;;;;;;;;;;12.29;76.59;102532.25;10491090;28;20491;-60
2021/06/13 03:59:22;;;;;;;0.03;0.03;;;;;;;12.28;76.62;102530.56;10498615;28;19939;-60
2021/06/13 04:04:25;;;;;;;0.10;0.10;;;;;;;12.28;77.03;102533.25;10531857;28;20062;-60
2021/06/13 04:09:25;;;;;;;0.10;0.10;;;;;;;12.30;77.21;102541.97;10525097;28;20020;-62
2021/06/13 04:14:26;;;;;;;0.10;0.10;;;;;;;12.31;77.03;102544.53;10516186;28;20031;-62
2021/06/13 04:19:28;;;;;;;0.10;0.10;;;;;;;12.36;76.96;102545.00;10527545;28;20027;-61
2021/06/13 04:24:29;;;;;;;0.10;0.10;;;;;;;12.44;76.45;102547.00;10489959;28;20050;-62
2021/06/13 04:29:29;;;;;;;0.10;0.10;;;;;;;12.54;75.86;102561.28;10490859;28;20051;-60
2021/06/13 04:34:30;;;;;;;0.10;0.10;;;;;;;12.64;75.21;102561.34;10489925;28;20060;-60
2021/06/13 04:39:30;;;;;;;0.10;0.10;;;;;;;12.67;75.14;102564.59;10489804;28;20497;-60
2021/06/13 04:44:31;;;;;;;0.10;0.10;;;;;;;12.70;75.17;102555.47;10493455;28;20020;-61
2021/06/13 04:49:32;;;;;;;0.10;0.10;;;;;;;12.75;74.70;102560.44;10531263;28;20567;-60
2021/06/13 04:55:03;;;;;;;0.10;0.10;;;;;;;12.89;72.76;102560.13;10531031;28;20355;-62
2021/06/13 05:00:05;;;;;;;0.10;0.10;;;;;;;13.08;71.21;102565.53;10531039;28;20052;-61
2021/06/13 05:05:06;;;;;;;0.10;0.10;;;;;;;13.28;70.78;102565.69;10530078;28;20033;-60
2021/06/13 05:10:08;;;;;;;0.10;0.10;;;;;;;13.37;70.38;102572.91;10496373;28;20029;-61
2021/06/13 05:15:09;;;;;;;0.10;0.10;;;;;;;13.43;69.47;102563.47;10496683;28;20045;-61
2021/06/13 05:20:10;;;;;;;0.10;0.10;;;;;;;13.44;70.63;102562.47;10501742;28;20024;-61
2021/06/13 05:25:11;;;;;;;0.10;0.10;;;;;;;13.43;69.07;102558.97;10496373;28;20109;-59
2021/06/13 05:30:12;;;;;;;0.10;0.10;;;;;;;13.49;69.23;102566.44;10496083;28;20036;-58
2021/06/13 05:35:13;;;;;;;0.10;0.10;;;;;;;13.56;68.70;102569.44;10496151;28;20487;-60
2021/06/13 05:40:15;;;;;;;0.10;0.10;;;;;;;13.64;68.36;102574.94;10494876;28;20027;-61
2021/06/13 05:45:17;;;;;;;0.10;0.10;;;;;;;13.77;68.30;102578.22;10477494;28;20021;-62
2021/06/13 05:50:18;;;;;;;0.10;0.10;;;;;;;13.83;69.33;102574.16;10497927;28;20103;-61
2021/06/13 05:55:18;;;;;;;0.10;0.10;;;;;;;13.95;70.16;102577.56;10498489;28;20462;-62
2021/06/13 06:00:29;;;;;;;0.10;0.10;;;;;;;14.15;69.63;102587.31;10494761;28;20066;-62
2021/06/13 06:05:30;;;;;;;0.10;0.10;;;;;;;14.70;68.94;102587.63;10494800;28;20513;-61
2021/06/13 06:10:33;;;;;;;0.10;0.10;;;;;;;14.91;69.18;102603.53;10494423;28;20028;-60
2021/06/13 06:15:36;;;;;;;0.20;0.20;;;;;;;14.83;68.36;102605.25;10494229;28;20239;-61
2021/06/13 06:20:37;;;;;;;0.10;0.10;;;;;;;14.61;68.68;102617.97;10493862;28;20032;-61
2021/06/13 06:25:37;;;;;;;0.10;0.10;;;;;;;14.45;68.81;102606.94;10513085;28;20016;-60
2021/06/13 06:30:38;;;;;;;0.10;0.10;;;;;;;14.51;70.57;102625.13;10519084;28;20021;-59
2021/06/13 06:35:38;;;;;;;0.10;0.10;;;;;;;14.55;69.17;102620.41;10493521;28;20059;-60
2021/06/13 06:40:39;;;;;;;0.10;0.10;;;;;;;14.85;68.66;102627.41;10492840;28;20028;-61
2021/06/13 06:45:39;;;;;;;0.10;0.10;;;;;;;15.26;68.85;102625.34;10493623;28;20410;-60
2021/06/13 06:50:39;;;;;;;0.10;0.10;;;;;;;15.32;67.36;102630.13;10475309;28;20016;-60
2021/06/13 06:55:40;;;;;;;0.10;0.10;;;;;;;15.22;66.44;102634.69;10477473;28;20016;-60
2021/06/13 07:00:40;;;;;;;0.10;0.10;;;;;;;15.40;66.04;102647.19;10492623;28;20390;-59
2021/06/13 07:05:40;;;;;;;0.10;0.10;;;;;;;15.53;65.71;102660.31;10492374;28;20065;-61
2021/06/13 07:10:41;;;;;;;0.10;0.10;;;;;;;15.34;64.95;102661.22;10491959;28;20016;-62
2021/06/13 07:15:41;;;;;;;0.10;0.10;;;;;;;15.22;67.25;102674.97;10492122;28;20036;-60
2021/06/13 07:20:42;;;;;;;0.10;0.10;;;;;;;15.08;67.81;102674.41;10492884;28;20033;-62
2021/06/13 07:25:42;;;;;;;0.00;0.00;;;;;;;15.09;66.60;102678.78;10491112;28;20044;-61
2021/06/13 07:30:43;;;;;;;0.10;0.10;;;;;;;15.23;66.05;102690.91;10492793;28;20338;-62
2021/06/13 07:35:44;;;;;;;0.10;0.10;;;;;;;15.53;66.05;102695.22;10528852;28;20524;-62
2021/06/13 07:40:45;;;;;;;0.10;0.10;;;;;;;15.70;64.53;102696.31;10532202;28;20020;-61
2021/06/13 07:45:45;;;;;;;0.10;0.10;;;;;;;16.02;63.98;102695.03;10531424;28;20020;-61
2021/06/13 07:50:46;;;;;;;0.10;0.10;;;;;;;15.77;63.35;102702.81;10494271;28;20410;-60
2021/06/13 07:55:46;;;;;;;0.10;0.10;;;;;;;15.63;65.43;102705.94;10491045;28;20498;-62
2021/06/13 08:00:50;;;;;;;0.10;0.10;;;;;;;15.75;65.22;102712.84;10519892;28;20103;-60
2021/06/13 08:05:50;;;;;;;0.10;0.10;;;;;;;15.90;63.37;102728.47;10546249;22;20040;-65
2021/06/13 08:10:50;;;;;;;0.10;0.10;;;;;;;16.79;61.94;102711.69;10477962;28;20021;-64
2021/06/13 08:15:52;;;;;;;0.10;0.10;;;;;;;16.72;60.08;102717.63;10456182;28;20029;-64
2021/06/13 08:20:53;;;;;;;0.10;0.10;;;;;;;16.52;62.76;102729.53;10473382;28;20039;-64
2021/06/13 08:25:54;;;;;;;0.10;0.10;;;;;;;16.72;62.52;102738.31;10466111;28;20021;-62
2021/06/13 08:30:54;;;;;;;0.10;0.10;;;;;;;16.84;60.92;102744.34;10479068;28;20017;-63
2021/06/13 08:35:55;;;;;;;0.10;0.10;;;;;;;16.98;58.09;102749.19;10464491;28;20037;-64
2021/06/13 08:40:55;;;;;;;0.10;0.10;;;;;;;17.05;57.46;102749.44;10477180;28;20086;-64
2021/06/13 08:45:58;;;;;;;0.10;0.10;;;;;;;18.03;54.62;102742.00;10469749;28;20099;-64
2021/06/13 08:51:01;;;;;;;0.10;0.10;;;;;;;18.77;53.70;102748.50;10493928;28;20273;-64
2021/06/13 08:56:01;;;;;;;0.10;0.10;;;;;;;19.11;49.75;102740.28;10470219;28;20028;-64
2021/06/13 09:01:04;;;;;;;0.10;0.10;;;;;;;20.00;48.00;102756.50;10499014;28;20033;-66
2021/06/13 09:06:04;;;;;;;0.10;0.10;;;;;;;20.44;46.66;102766.78;10486747;28;20145;-64
2021/06/13 09:11:06;;;;;;;0.10;0.10;;;;;;;20.60;44.96;102758.59;10472849;28;20017;-64
2021/06/13 09:16:07;;;;;;;0.10;0.10;;;;;;;21.00;47.28;102765.59;10475110;28;20263;-64
2021/06/13 09:21:14;;;;;;;0.10;0.10;;;;;;;21.47;45.55;102772.66;10497879;28;20032;-64
2021/06/13 09:26:17;;;;;;;0.08;0.08;;;;;;;21.48;46.54;102771.63;10484208;28;20507;-64
2021/06/13 09:31:20;;;;;;;;;;;;;;;20.88;45.62;102783.28;10466799;28;20023;-65
2021/06/13 09:36:23;;;;;;;0.10;0.10;;;;;;;20.20;47.25;102783.97;10488772;28;20538;-64
2021/06/13 09:41:24;;;;;;;0.10;0.10;;;;;;;19.40;48.58;102788.38;10470878;28;20112;-64
2021/06/13 09:46:27;;;;;;;0.10;0.10;;;;;;;19.52;48.16;102788.00;10484288;28;20564;-65
2021/06/13 09:51:33;;;;;;;0.10;0.10;;;;;;;19.64;47.56;102795.59;10455109;28;20046;-64
2021/06/13 09:56:35;;;;;;;0.10;0.10;;;;;;;19.39;49.48;102789.38;10469576;28;20259;-64
2021/06/13 10:01:47;;;;;;;0.10;0.10;;;;;;;19.14;48.12;102798.47;10454593;28;20116;-64
2021/06/13 10:06:52;;;;;;;0.10;0.10;;;;;;;19.92;51.00;102797.09;10465920;28;20028;-64
2021/06/13 10:12:04;;;;;;;0.10;0.10;;;;;;;19.87;45.42;102786.81;10457776;28;20086;-64
2021/06/13 10:17:05;;;;;;;0.10;0.10;;;;;;;20.41;46.83;102795.03;10438381;28;20024;-66
2021/06/13 10:22:07;;;;;;;0.10;0.10;;;;;;;20.68;43.28;102796.47;10484271;28;20111;-66
2021/06/13 10:27:09;;;;;;;0.00;0.00;;;;;;;21.16;42.46;102790.88;10479978;28;20433;-66
2021/06/13 10:32:11;;;;;;;0.00;0.00;;;;;;;20.97;46.21;102792.19;10478029;28;20020;-66
2021/06/13 10:37:15;;;;;;;0.10;0.10;;;;;;;20.94;46.00;102806.09;10471042;28;20440;-65
2021/06/13 10:42:17;;;;;;;0.10;0.10;;;;;;;20.97;45.49;102803.91;10461696;28;20028;-65
2021/06/13 10:47:20;;;;;;;0.10;0.10;;;;;;;21.59;46.22;102794.75;10488571;28;20028;-65
2021/06/13 10:52:26;;;;;;;0.10;0.10;;;;;;;21.35;45.83;102801.22;10475575;28;20411;-65
2021/06/13 10:57:32;;;;;;;0.10;0.10;;;;;;;21.51;44.04;102788.56;10461159;28;20020;-66
2021/06/13 11:02:38;;;;;;;0.10;0.10;;;;;;;21.00;45.59;102803.53;10460112;28;20083;-66
2021/06/13 11:07:40;;;;;;;0.10;0.10;;;;;;;21.32;45.51;102803.44;10472626;28;20052;-65
2021/06/13 11:12:57;;;;;;;0.00;0.00;;;;;;;21.57;44.85;102794.09;10474355;28;20525;-65
2021/06/13 11:17:58;;;;;;;0.10;0.10;;;;;;;21.78;45.27;102795.22;10468415;28;20406;-65
2021/06/13 11:23:01;;;;;;;0.08;0.08;;;;;;;21.62;45.62;102807.94;10467884;28;20060;-65
2021/06/13 11:28:22;;;;;;;0.17;0.17;;;;;;;21.22;44.79;102807.25;10467698;28;20396;-65
2021/06/13 11:33:33;;;;;;;0.10;0.10;;;;;;;20.60;47.06;102814.63;10461849;28;20061;-65
2021/06/13 11:38:34;;;;;;;0.10;0.10;;;;;;;20.21;46.08;102812.72;10442445;28;20028;-65
2021/06/13 11:43:37;;;;;;;0.10;0.10;;;;;;;20.01;49.35;102814.97;10480826;28;20180;-65
2021/06/13 11:48:49;;;;;;;0.10;0.10;;;;;;;20.20;46.75;102811.03;10483799;28;20025;-64
2021/06/13 11:53:51;;;;;;;0.10;0.10;;;;;;;20.03;46.03;102811.09;10461776;28;20017;-65
2021/06/13 11:59:10;;;;;;;0.00;0.00;;;;;;;20.18;46.74;102818.47;10466391;28;20025;-64
2021/06/13 12:04:14;;;;;;;0.10;0.10;;;;;;;20.20;48.59;102819.16;10439682;28;20083;-65
2021/06/13 12:09:17;;;;;;;0.10;0.10;;;;;;;20.24;48.51;102818.63;10466008;28;20403;-65
2021/06/13 12:14:24;;;;;;;;;;;;;;;20.66;47.42;102820.16;10457878;28;20410;-65
2021/06/13 12:19:39;;;;;;;0.10;0.10;;;;;;;20.86;47.99;102817.00;10466649;28;19916;-65
2021/06/13 12:29:43;;;;;;;0.10;0.10;;;;;;;20.07;49.66;102816.97;10467953;28;20029;-65
2021/06/13 12:34:54;;;;;;;0.10;0.10;;;;;;;20.05;50.71;102810.94;10475226;28;20569;-65
2021/06/13 12:40:00;;;;;;;0.10;0.10;;;;;;;19.37;50.04;102813.03;10471463;28;20036;-65
2021/06/13 12:45:11;;;;;;;0.10;0.10;;;;;;;19.22;51.68;102826.34;10468170;28;20024;-65
2021/06/13 12:50:22;;;;;;;0.00;0.00;;;;;;;19.07;51.11;102814.53;10464750;28;20073;-65
2021/06/13 12:55:23;;;;;;;0.10;0.10;;;;;;;19.07;50.73;102819.94;10468929;28;20017;-65
2021/06/13 13:00:24;;;;;;;0.10;0.10;;;;;;;19.37;50.84;102804.94;10466093;28;20096;-65
2021/06/13 13:05:24;;;;;;;0.10;0.10;;;;;;;19.59;48.52;102819.59;10465635;28;20021;-65
2021/06/13 13:10:25;;;;;;;0.10;0.10;;;;;;;19.43;51.58;102825.88;10469179;28;20096;-65
2021/06/13 13:15:28;;;;;;;0.10;0.10;;;;;;;19.44;50.45;102816.75;10472431;28;20029;-64
2021/06/13 13:20:32;;;;;;;0.00;0.00;;;;;;;19.44;48.27;102805.94;10466781;28;20021;-65
2021/06/13 13:25:35;;;;;;;0.10;0.10;;;;;;;19.27;48.79;102819.63;10483990;28;20021;-65
2021/06/13 13:30:35;;;;;;;0.10;0.10;;;;;;;19.43;49.13;102804.25;10474706;28;20016;-65
2021/06/13 13:35:43;;;;;;;0.10;0.10;;;;;;;19.43;49.49;102800.69;10468505;28;20035;-65
2021/06/13 13:40:49;;;;;;;0.00;0.00;;;;;;;19.36;48.02;102805.94;10474071;28;20278;-65
2021/06/13 13:45:50;;;;;;;0.10;0.10;;;;;;;19.15;47.97;102805.59;10475861;28;20040;-65
2021/06/13 13:50:57;;;;;;;0.10;0.10;;;;;;;19.23;48.65;102797.50;10472831;28;20012;-65
2021/06/13 13:55:59;;;;;;;0.10;0.10;;;;;;;19.26;49.31;102797.16;10480489;28;20279;-64
2021/06/13 14:01:01;;;;;;;0.10;0.10;;;;;;;19.29;49.43;102793.28;10483085;28;20023;-65
2021/06/13 14:06:03;;;;;;;0.10;0.10;;;;;;;19.28;47.98;102784.31;10481735;28;20108;-65
2021/06/13 14:11:03;;;;;;;0.10;0.10;;;;;;;19.43;47.87;102796.16;10528797;22;20036;-60
2021/06/13 14:16:04;;;;;;;0.10;0.10;;;;;;;19.44;46.65;102778.91;10548106;28;20016;-62
2021/06/13 14:21:04;;;;;;;0.10;0.10;;;;;;;19.40;46.69;102782.97;10539477;28;20028;-63
2021/06/13 14:26:05;;;;;;;0.10;0.10;;;;;;;19.32;48.84;102774.88;10546302;28;20114;-61
2021/06/13 14:31:06;;;;;;;0.00;0.00;;;;;;;19.32;48.21;102779.44;10571281;28;20302;-61
2021/06/13 14:36:08;;;;;;;0.10;0.10;;;;;;;19.27;47.51;102774.53;10577412;28;20031;-59
2021/06/13 14:41:08;;;;;;;0.10;0.10;;;;;;;19.18;48.59;102767.44;10571064;28;20114;-62
2021/06/13 14:46:09;;;;;;;0.10;0.10;;;;;;;19.37;48.43;102763.53;10577152;28;20027;-58
2021/06/13 14:51:09;;;;;;;0.10;0.10;;;;;;;19.45;49.32;102761.66;10561380;28;20031;-61
2021/06/13 14:56:09;;;;;;;0.10;0.10;;;;;;;19.47;47.13;102766.06;10543208;28;20031;-60
2021/06/13 15:01:10;;;;;;;0.10;0.10;;;;;;;19.33;47.47;102768.44;10550561;28;20839;-61
2021/06/13 15:06:10;;;;;;;0.10;0.10;;;;;;;19.34;50.10;102761.16;10541347;28;20258;-63
2021/06/13 15:11:12;;;;;;;0.10;0.10;;;;;;;19.32;49.51;102760.53;10533923;28;20092;-59
2021/06/13 15:16:12;;;;;;;0.10;0.10;;;;;;;19.30;48.38;102765.25;10542828;28;20016;-64
2021/06/13 15:21:13;;;;;;;0.10;0.10;;;;;;;19.37;49.17;102766.22;10533446;28;20016;-62
2021/06/13 15:26:13;;;;;;;0.10;0.10;;;;;;;19.37;50.81;102774.34;10533447;28;20020;-62
2021/06/13 15:31:13;;;;;;;0.10;0.10;;;;;;;19.36;49.40;102768.09;10556093;28;20023;-64
2021/06/13 15:36:18;;;;;;;0.10;0.10;;;;;;;19.29;51.36;102769.81;10541287;28;20308;-62
2021/06/13 15:41:19;;;;;;;0.10;0.10;;;;;;;19.32;51.66;102760.53;10549712;28;20410;-61
2021/06/13 15:46:19;;;;;;;0.10;0.10;;;;;;;18.99;49.92;102757.78;10539831;28;20028;-63
2021/06/13 15:51:19;;;;;;;0.10;0.10;;;;;;;18.91;50.81;102755.13;10535546;28;20107;-63
2021/06/13 15:56:21;;;;;;;0.10;0.10;;;;;;;18.81;50.52;102759.81;10531410;27;20016;-62
2021/06/13 16:01:24;;;;;;;0.10;0.10;;;;;;;18.80;49.96;102748.19;10540942;28;20539;-60
2021/06/13 16:06:24;;;;;;;0.10;0.10;;;;;;;18.81;50.91;102744.44;10540642;28;20110;-63
2021/06/13 16:11:25;;;;;;;0.10;0.10;;;;;;;18.79;50.70;102754.56;10544073;28;20012;-64
2021/06/13 16:16:25;;;;;;;0.10;0.10;;;;;;;18.83;52.68;102753.25;10571234;28;20276;-62
2021/06/13 16:21:26;;;;;;;0.00;0.00;;;;;;;18.78;51.36;102745.63;10562880;28;20496;-62
2021/06/13 16:26:27;;;;;;;0.10;0.10;;;;;;;18.65;51.98;102752.50;10575222;28;20351;-64
2021/06/13 16:31:27;;;;;;;0.10;0.10;;;;;;;18.52;51.64;102751.13;10565346;28;20014;-61
2021/06/13 16:36:27;;;;;;;0.10;0.10;;;;;;;18.40;52.77;102755.13;10575489;28;20110;-64
2021/06/13 16:41:28;;;;;;;0.10;0.10;;;;;;;18.32;52.14;102747.00;10574761;28;20034;-59
2021/06/13 16:46:29;;;;;;;0.10;0.10;;;;;;;18.29;53.31;102758.13;10573745;28;20028;-59
2021/06/13 16:51:30;;;;;;;0.10;0.10;;;;;;;18.18;53.49;102751.19;10574398;28;20019;-63
2021/06/13 16:56:30;;;;;;;0.10;0.10;;;;;;;18.03;53.12;102742.84;10574891;28;20374;-64
2021/06/13 17:01:31;;;;;;;0.10;0.10;;;;;;;17.90;52.67;102737.06;10550098;28;20474;-64
2021/06/13 17:06:32;;;;;;;0.10;0.10;;;;;;;17.82;54.41;102747.81;10549259;28;20092;-61
2021/06/13 17:11:32;;;;;;;0.10;0.10;;;;;;;17.72;53.80;102747.06;10543254;28;20020;-64
2021/06/13 17:16:32;;;;;;;0.10;0.10;;;;;;;17.64;54.73;102756.78;10562516;27;20027;-64
2021/06/13 17:21:33;;;;;;;0.10;0.10;;;;;;;17.55;55.76;102741.56;10544776;27;20597;-64
2021/06/13 17:26:34;;;;;;;0.10;0.10;;;;;;;17.49;55.59;102755.66;10543501;28;20016;-63
2021/06/13 17:31:35;;;;;;;0.10;0.10;;;;;;;17.42;55.94;102741.13;10538107;28;20258;-61
2021/06/13 17:36:35;;;;;;;0.10;0.10;;;;;;;17.37;56.65;102754.25;10538348;28;20039;-59
2021/06/13 17:41:39;;;;;;;0.10;0.10;;;;;;;17.28;55.83;102747.94;10535580;28;20023;-60
2021/06/13 17:46:40;;;;;;;0.10;0.10;;;;;;;17.19;56.99;102751.56;10540863;28;20016;-62
2021/06/13 17:51:41;;;;;;;0.10;0.10;;;;;;;17.12;56.56;102745.97;10555848;27;20377;-65
2021/06/13 17:56:41;;;;;;;0.10;0.10;;;;;;;17.06;56.97;102751.97;10554439;27;20024;-62
2021/06/13 18:01:42;;;;;;;0.10;0.10;;;;;;;16.99;58.03;102753.59;10537579;28;20378;-65
2021/06/13 18:06:42;;;;;;;0.10;0.10;;;;;;;16.91;58.87;102748.97;10545988;28;20383;-64
2021/06/13 18:11:43;;;;;;;0.10;0.10;;;;;;;16.84;58.61;102745.22;10540082;28;20362;-62
2021/06/13 18:16:43;;;;;;;0.00;0.00;;;;;;;16.78;59.38;102744.97;10536321;28;20024;-64
2021/06/13 18:21:45;;;;;;;0.10;0.10;;;;;;;16.70;60.15;102743.88;10535744;28;20574;-65
2021/06/13 18:26:45;;;;;;;0.00;0.00;;;;;;;16.61;60.44;102735.84;10552803;28;20474;-67
2021/06/13 18:31:46;;;;;;;0.10;0.10;;;;;;;16.51;60.95;102735.94;10558076;28;20024;-62
2021/06/13 18:36:47;;;;;;;0.00;0.00;;;;;;;16.41;62.26;102730.63;10577305;28;20520;-61
2021/06/13 18:41:48;;;;;;;0.00;0.00;;;;;;;16.34;62.56;102731.38;10576263;28;20031;-60
2021/06/13 18:46:49;;;;;;;0.10;0.10;;;;;;;16.25;62.92;102733.97;10577248;28;20023;-62
2021/06/13 18:51:49;;;;;;;0.10;0.10;;;;;;;16.15;63.43;102730.50;10568048;28;20548;-62
2021/06/13 18:56:49;;;;;;;0.10;0.10;;;;;;;16.02;63.52;102720.06;10539757;28;20044;-61
2021/06/13 19:01:52;;;;;;;0.00;0.00;;;;;;;15.90;64.52;102721.25;10548313;28;20314;-62
2021/06/13 19:06:54;;;;;;;0.10;0.10;;;;;;;15.77;65.11;102713.53;10544599;28;20478;-63
2021/06/13 19:11:56;;;;;;;0.10;0.10;;;;;;;15.65;65.31;102717.38;10555401;28;20221;-61
2021/06/13 19:16:57;;;;;;;0.10;0.10;;;;;;;15.53;66.39;102710.47;10537252;28;20028;-63
2021/06/13 19:22:02;;;;;;;0.10;0.10;;;;;;;15.36;66.90;102707.56;10532856;28;20541;-60
2021/06/13 19:27:03;;;;;;;0.10;0.10;;;;;;;15.23;67.37;102712.38;10572791;28;20022;-61
2021/06/13 19:32:04;;;;;;;0.10;0.10;;;;;;;15.08;68.20;102703.94;10556289;28;20016;-63
2021/06/13 19:37:05;;;;;;;0.10;0.10;;;;;;;14.93;69.05;102702.69;10533257;28;20034;-61
2021/06/13 19:42:06;;;;;;;0.10;0.10;;;;;;;14.77;69.15;102699.72;10545087;27;20107;-63
2021/06/13 19:47:06;;;;;;;0.10;0.10;;;;;;;14.59;70.17;102695.03;10559132;28;20024;-60
2021/06/13 19:52:06;;;;;;;0.10;0.10;;;;;;;14.44;70.71;102705.28;10574503;28;20023;-63
2021/06/13 19:57:07;;;;;;;0.10;0.10;;;;;;;14.26;71.11;102701.59;10574561;28;20023;-61
2021/06/13 20:02:07;;;;;;;0.10;0.10;;;;;;;14.09;72.22;102705.78;10574016;28;20019;-62
2021/06/13 20:07:08;;;;;;;0.10;0.10;;;;;;;13.89;72.65;102693.31;10551802;28;20031;-62
2021/06/13 20:12:09;;;;;;;0.10;0.10;;;;;;;13.72;73.57;102697.47;10551229;22;20039;-62
2021/06/13 20:17:09;;;;;;;0.10;0.10;;;;;;;13.60;73.98;102699.38;10545866;28;20077;-62
2021/06/13 20:22:10;;;;;;;0.10;0.10;;;;;;;13.43;74.43;102700.84;10537901;28;20066;-60
2021/06/13 20:27:10;;;;;;;0.10;0.10;;;;;;;13.23;75.38;102690.97;10529435;28;20506;-62
2021/06/13 20:32:11;;;;;;;0.10;0.10;;;;;;;13.08;76.17;102693.97;10526394;28;20458;-61
2021/06/13 20:37:11;;;;;;;0.10;0.10;;;;;;;12.94;76.26;102688.09;10537244;28;20020;-59
2021/06/13 20:42:12;;;;;;;0.10;0.10;;;;;;;12.73;77.23;102686.22;10528644;28;20278;-60
2021/06/13 20:47:12;;;;;;;0.10;0.10;;;;;;;12.59;77.98;102689.19;10536884;28;20331;-60
2021/06/13 20:52:13;;;;;;;0.13;0.13;;;;;;;12.45;78.44;102677.00;10519569;28;20017;-59
2021/06/13 20:57:15;;;;;;;0.10;0.10;;;;;;;12.36;79.39;102669.72;10497775;28;20028;-58
2021/06/13 21:02:16;;;;;;;0.10;0.10;;;;;;;12.30;79.22;102680.91;10535920;28;20470;-57
2021/06/13 21:07:18;;;;;;;0.10;0.10;;;;;;;12.18;79.22;102675.56;10526093;28;20295;-60
2021/06/13 21:12:19;;;;;;;0.10;0.10;;;;;;;12.06;79.89;102673.91;10493661;28;20027;-61
2021/06/13 21:17:19;;;;;;;0.10;0.10;;;;;;;11.94;80.89;102677.56;10516316;28;20031;-58
2021/06/13 21:22:20;;;;;;;0.10;0.10;;;;;;;11.79;81.26;102676.94;10534744;28;20383;-61
2021/06/13 21:27:21;;;;;;;0.10;0.10;;;;;;;11.66;82.12;102671.72;10529686;28;20266;-60
2021/06/13 21:32:21;;;;;;;0.10;0.10;;;;;;;11.56;82.57;102660.91;10529185;28;20468;-59
2021/06/13 21:37:21;;;;;;;0.10;0.10;;;;;;;11.44;81.98;102661.91;10530073;28;20048;-58
2021/06/13 21:42:22;;;;;;;0.10;0.10;;;;;;;11.29;82.06;102661.28;10533617;28;20055;-60
2021/06/13 21:47:22;;;;;;;0.10;0.10;;;;;;;11.17;82.12;102661.34;10533619;28;20024;-61
2021/06/13 21:52:22;;;;;;;0.10;0.10;;;;;;;11.14;82.28;102657.13;10533368;28;20079;-60
2021/06/13 21:57:23;;;;;;;0.00;0.00;;;;;;;11.24;80.95;102655.44;10518740;28;20328;-61
2021/06/13 22:02:23;;;;;;;0.10;0.10;;;;;;;11.37;80.49;102651.81;10513650;28;20103;-60
2021/06/13 22:07:24;;;;;;;0.10;0.10;;;;;;;11.44;80.28;102653.03;10525161;28;20344;-62
2021/06/13 22:12:24;;;;;;;0.10;0.10;;;;;;;11.49;80.24;102653.50;10531567;28;20058;-62
2021/06/13 22:17:24;;;;;;;0.10;0.10;;;;;;;11.46;80.18;102648.41;10533339;28;20032;-59
2021/06/13 22:22:25;;;;;;;0.10;0.10;;;;;;;11.36;80.66;102652.78;10532505;28;20487;-59
2021/06/13 22:27:25;;;;;;;0.10;0.10;;;;;;;11.17;80.11;102640.88;10533043;28;20024;-62
2021/06/13 22:32:26;;;;;;;0.10;0.10;;;;;;;10.99;80.27;102651.13;10506829;28;20249;-61
2021/06/13 22:37:27;;;;;;;0.10;0.10;;;;;;;10.73;81.20;102650.44;10514804;28;20403;-59
2021/06/13 22:42:27;;;;;;;0.10;0.10;;;;;;;10.62;82.50;102645.94;10532003;28;20099;-58
2021/06/13 22:47:27;;;;;;;0.10;0.10;;;;;;;10.53;83.48;102646.63;10533284;28;20410;-59
2021/06/13 22:52:28;;;;;;;0.10;0.10;;;;;;;10.49;84.37;102644.28;10532106;28;20053;-60
2021/06/13 22:57:28;;;;;;;0.10;0.10;;;;;;;10.27;83.73;102643.22;10532412;28;20274;-57
2021/06/13 23:02:28;;;;;;;0.10;0.10;;;;;;;10.11;84.48;102634.63;10512488;28;20024;-61
2021/06/13 23:07:29;;;;;;;0.10;0.10;;;;;;;10.00;83.66;102635.41;10532208;28;20270;-61
2021/06/13 23:12:29;;;;;;;0.10;0.10;;;;;;;9.73;83.75;102633.75;10527351;28;20268;-61
2021/06/13 23:17:29;;;;;;;0.10;0.10;;;;;;;9.48;85.02;102618.72;10523732;28;20030;-61